Time;durP1;ratioP1;P1;durP2;ratioP2;P2;SDS_P1;SDS_P2;PMS_P1;PMS_P2;Temp;Humidity;BMP_temperature;BMP_pressure;BME280_temperature;BME280_humidity;BME280_pressure;Samples;Min_cycle;Max_cycle;Signal;HPM_P1;HPM_P2
2022/11/24 00:01:09;;;;;;;1.30;1.10;;;8.50;98.00;;;;;;4972458;28;20472;-68
2022/11/24 00:03:36;;;;;;;5.63;1.37;;;8.50;98.00;;;;;;4972243;28;20465;-68
2022/11/24 00:06:04;;;;;;;1.47;1.37;;;8.50;98.00;;;;;;4972191;28;20471;-68
2022/11/24 00:08:33;;;;;;;1.20;1.10;;;8.60;98.00;;;;;;4972276;28;20938;-68
2022/11/24 00:11:04;;;;;;;1.40;1.00;;;8.70;98.00;;;;;;4972510;28;20464;-68
2022/11/24 00:13:32;;;;;;;1.40;1.30;;;8.70;98.00;;;;;;4972701;28;20467;-68
2022/11/24 00:16:08;;;;;;;1.20;1.10;;;8.80;98.00;;;;;;4972613;28;20460;-68
2022/11/24 00:18:35;;;;;;;2.00;1.40;;;8.90;98.00;;;;;;4972792;28;20461;-68
2022/11/24 00:21:02;;;;;;;1.40;1.13;;;8.70;98.00;;;;;;4972462;28;20463;-68
2022/11/24 00:23:30;;;;;;;1.47;1.43;;;8.70;98.00;;;;;;4972760;28;20952;-69
2022/11/24 00:26:04;;;;;;;2.17;1.43;;;8.70;98.00;;;;;;4972618;28;20527;-68
2022/11/24 00:28:31;;;;;;;1.20;1.00;;;8.50;98.00;;;;;;4972477;28;20493;-68
2022/11/24 00:30:58;;;;;;;1.10;0.90;;;8.50;98.00;;;;;;4972488;28;20466;-68
2022/11/24 00:33:25;;;;;;;2.37;1.30;;;8.50;98.00;;;;;;4973088;28;20456;-68
2022/11/24 00:35:55;;;;;;;1.70;1.40;;;8.40;98.00;;;;;;4976381;28;20457;-68
2022/11/24 00:38:23;;;;;;;1.80;1.27;;;8.50;98.00;;;;;;4976103;28;20538;-68
2022/11/24 00:40:50;;;;;;;2.43;1.43;;;8.50;98.00;;;;;;4976148;28;20468;-68
2022/11/24 00:43:19;;;;;;;1.10;1.00;;;8.60;98.00;;;;;;4976019;28;20471;-68
2022/11/24 00:45:46;;;;;;;1.43;1.07;;;8.60;98.00;;;;;;4976046;28;20805;-68
2022/11/24 00:48:13;;;;;;;1.30;1.10;;;8.60;98.00;;;;;;4975914;28;20487;-68
2022/11/24 00:50:40;;;;;;;4.30;1.10;;;8.70;98.00;;;;;;4975961;28;20464;-68
2022/11/24 00:53:08;;;;;;;1.40;1.10;;;8.80;98.00;;;;;;4975731;28;20460;-68
2022/11/24 00:55:35;;;;;;;1.43;1.27;;;8.80;98.00;;;;;;4975801;28;20928;-68
2022/11/24 00:58:02;;;;;;;1.20;1.00;;;8.80;98.00;;;;;;4975644;28;20872;-68
2022/11/24 01:00:30;;;;;;;1.30;1.20;;;8.90;98.00;;;;;;4974276;28;20461;-68
2022/11/24 01:02:58;;;;;;;1.20;1.10;;;8.90;98.00;;;;;;4975487;28;20452;-68
2022/11/24 01:05:25;;;;;;;7.13;1.30;;;8.90;98.00;;;;;;4975323;28;21044;-68
2022/11/24 01:07:53;;;;;;;1.20;1.10;;;8.90;98.00;;;;;;4975397;28;20488;-68
2022/11/24 01:10:20;;;;;;;1.73;1.10;;;8.90;98.00;;;;;;4975294;28;20467;-68
2022/11/24 01:12:49;;;;;;;1.50;1.30;;;8.90;98.00;;;;;;4975560;28;20461;-68
2022/11/24 01:15:16;;;;;;;2.70;1.30;;;8.70;98.00;;;;;;4975131;28;20456;-68
2022/11/24 01:17:44;;;;;;;1.40;1.20;;;8.70;98.00;;;;;;4975490;28;20467;-68
2022/11/24 01:20:11;;;;;;;1.40;1.10;;;8.60;98.00;;;;;;4975100;28;20468;-68
2022/11/24 01:22:40;;;;;;;1.20;1.20;;;8.70;98.00;;;;;;4975108;28;20470;-68
2022/11/24 01:25:08;;;;;;;2.80;1.57;;;8.60;98.00;;;;;;4974693;28;20467;-68
2022/11/24 01:27:37;;;;;;;1.30;1.10;;;8.60;98.00;;;;;;4974787;28;20467;-68
2022/11/24 01:30:05;;;;;;;2.03;1.20;;;8.70;98.00;;;;;;4975152;28;20481;-68
2022/11/24 01:32:34;;;;;;;1.70;1.10;;;8.50;98.00;;;;;;4975432;28;20468;-68
2022/11/24 01:35:02;;;;;;;3.57;1.80;;;8.50;98.00;;;;;;4975115;28;20453;-68
2022/11/24 01:37:31;;;;;;;1.10;1.00;;;8.30;98.00;;;;;;4975300;28;20523;-68
2022/11/24 01:39:58;;;;;;;2.80;1.73;;;8.30;98.00;;;;;;4975082;28;20515;-68
2022/11/24 01:42:27;;;;;;;3.40;1.20;;;8.30;98.00;;;;;;4975086;28;20462;-68
2022/11/24 01:45:29;;;;;;;2.60;1.43;;;8.30;98.00;;;;;;4974089;28;20519;-68
2022/11/24 01:47:57;;;;;;;1.10;1.00;;;8.30;98.00;;;;;;4974655;28;20999;-68
2022/11/24 01:50:26;;;;;;;1.97;1.30;;;8.30;98.00;;;;;;4973449;28;20472;-68
2022/11/24 01:52:55;;;;;;;1.30;1.10;;;8.30;98.00;;;;;;4974625;28;20457;-68
2022/11/24 01:55:27;;;;;;;1.20;1.00;;;8.20;98.00;;;;;;4974709;28;20460;-68
2022/11/24 01:57:59;;;;;;;3.37;1.33;;;8.20;98.00;;;;;;4974645;28;20454;-68
2022/11/24 02:00:27;;;;;;;1.40;1.10;;;8.20;98.00;;;;;;4974516;28;20837;-68
2022/11/24 02:02:54;;;;;;;2.80;1.07;;;8.10;98.00;;;;;;4974473;28;20476;-68
2022/11/24 02:05:30;;;;;;;1.83;1.37;;;8.00;98.00;;;;;;4974302;28;20517;-68
2022/11/24 02:08:00;;;;;;;2.03;1.30;;;8.00;98.00;;;;;;4974331;28;20491;-68
2022/11/24 02:10:28;;;;;;;2.50;1.27;;;8.10;98.00;;;;;;4974390;28;20877;-68
2022/11/24 02:12:58;;;;;;;2.40;1.33;;;8.20;98.00;;;;;;4974162;28;20516;-68
2022/11/24 02:15:26;;;;;;;1.97;1.23;;;8.30;98.00;;;;;;4974296;28;20798;-68
2022/11/24 02:17:53;;;;;;;1.20;1.00;;;8.30;98.00;;;;;;4974212;28;20865;-68
2022/11/24 02:20:20;;;;;;;1.30;1.30;;;8.20;98.00;;;;;;4974209;28;20878;-68
2022/11/24 02:22:54;;;;;;;1.20;1.10;;;8.30;98.00;;;;;;4974194;28;20513;-68
2022/11/24 02:25:30;;;;;;;2.00;1.20;;;8.40;98.00;;;;;;4974306;28;20553;-68
2022/11/24 02:28:00;;;;;;;1.50;1.20;;;8.40;98.00;;;;;;4974008;28;20530;-68
2022/11/24 02:30:28;;;;;;;1.33;1.10;;;8.40;98.00;;;;;;4974337;28;20480;-68
2022/11/24 02:32:55;;;;;;;1.47;1.10;;;8.50;98.00;;;;;;4974210;28;21213;-68
2022/11/24 02:35:22;;;;;;;2.17;1.10;;;8.50;98.00;;;;;;4974212;28;20463;-68
2022/11/24 02:37:49;;;;;;;5.63;1.53;;;8.50;98.00;;;;;;4973946;28;20461;-68
2022/11/24 02:40:18;;;;;;;1.20;1.00;;;8.60;98.00;;;;;;4973977;28;20464;-68
2022/11/24 02:42:47;;;;;;;2.03;1.20;;;8.60;98.00;;;;;;4973708;28;20486;-68
2022/11/24 02:45:16;;;;;;;1.30;1.10;;;8.50;98.00;;;;;;4973809;28;20461;-68
2022/11/24 02:47:44;;;;;;;7.03;1.20;;;8.50;98.00;;;;;;4973538;28;20471;-68
2022/11/24 02:50:18;;;;;;;1.30;1.03;;;8.50;98.00;;;;;;4973609;28;20500;-68
2022/11/24 02:52:45;;;;;;;1.20;1.00;;;8.50;98.00;;;;;;4973560;28;20460;-68
2022/11/24 02:55:12;;;;;;;1.20;1.10;;;8.50;98.00;;;;;;4973599;28;20492;-68
2022/11/24 02:57:39;;;;;;;1.10;0.90;;;8.60;98.00;;;;;;4973379;28;20460;-68
2022/11/24 03:00:07;;;;;;;1.20;1.00;;;8.60;98.00;;;;;;4973401;28;20464;-68
2022/11/24 03:02:36;;;;;;;1.83;1.10;;;8.60;98.00;;;;;;4973650;28;20456;-68
2022/11/24 03:05:03;;;;;;;2.37;1.37;;;8.60;98.00;;;;;;4973279;28;20464;-68
2022/11/24 03:07:30;;;;;;;4.63;1.43;;;8.60;98.00;;;;;;4973605;28;20471;-68
2022/11/24 03:09:57;;;;;;;1.20;1.00;;;8.60;98.00;;;;;;4973303;28;20496;-68
2022/11/24 03:12:24;;;;;;;1.10;1.00;;;8.60;98.00;;;;;;4973349;28;20464;-68
2022/11/24 03:14:51;;;;;;;1.20;1.00;;;8.60;98.00;;;;;;4973475;28;21104;-68
2022/11/24 03:17:18;;;;;;;3.33;1.37;;;8.60;98.00;;;;;;4973421;28;21220;-68
2022/11/24 03:19:46;;;;;;;1.77;1.20;;;8.60;98.00;;;;;;4972996;28;20464;-68
2022/11/24 03:22:13;;;;;;;1.57;1.20;;;8.60;98.00;;;;;;4972914;28;20828;-68
2022/11/24 03:24:40;;;;;;;1.20;1.00;;;8.60;98.00;;;;;;4973422;28;20472;-68
2022/11/24 03:27:07;;;;;;;1.77;1.33;;;8.60;98.00;;;;;;4973020;28;20860;-68
2022/11/24 03:29:35;;;;;;;1.30;1.10;;;8.50;98.00;;;;;;4973393;28;20499;-68
2022/11/24 03:32:02;;;;;;;2.40;1.60;;;8.50;98.00;;;;;;4973298;28;20957;-68
2022/11/24 03:34:29;;;;;;;1.20;1.10;;;8.50;98.00;;;;;;4973353;28;20942;-68
2022/11/24 03:36:58;;;;;;;1.40;1.00;;;8.50;98.00;;;;;;4972975;28;20518;-68
2022/11/24 03:39:25;;;;;;;1.40;1.00;;;8.50;98.00;;;;;;4973087;28;21003;-68
2022/11/24 03:41:52;;;;;;;5.03;1.50;;;8.40;98.00;;;;;;4972958;28;20460;-68
2022/11/24 03:44:19;;;;;;;1.27;1.23;;;8.40;98.00;;;;;;4973052;28;20489;-68
2022/11/24 03:46:47;;;;;;;1.20;1.00;;;8.30;98.00;;;;;;4973017;28;20465;-68
2022/11/24 03:49:14;;;;;;;1.10;0.90;;;8.40;98.00;;;;;;4972598;28;20483;-68
2022/11/24 03:51:41;;;;;;;1.30;1.10;;;8.40;98.00;;;;;;4973021;28;20514;-68
2022/11/24 03:54:10;;;;;;;1.87;1.10;;;8.40;98.00;;;;;;4972880;28;20995;-68
2022/11/24 03:56:37;;;;;;;1.73;1.20;;;8.50;98.00;;;;;;4973011;28;20467;-68
2022/11/24 03:59:04;;;;;;;1.97;1.20;;;8.50;98.00;;;;;;4972943;28;20463;-68
2022/11/24 04:01:31;;;;;;;1.30;1.10;;;8.50;98.00;;;;;;4972889;28;20465;-68
2022/11/24 04:03:59;;;;;;;1.77;1.20;;;8.50;98.00;;;;;;4972845;28;20468;-68
2022/11/24 04:06:26;;;;;;;1.30;1.00;;;8.50;98.00;;;;;;4973001;28;20862;-68
2022/11/24 04:08:53;;;;;;;1.70;1.30;;;8.50;98.00;;;;;;4974186;28;20483;-68
2022/11/24 04:14:06;;;;;;;1.50;1.00;;;8.60;98.00;;;;;;4976716;28;20452;-68
2022/11/24 04:16:33;;;;;;;1.20;1.07;;;8.60;98.00;;;;;;4976409;28;20989;-68
2022/11/24 04:19:00;;;;;;;1.20;1.00;;;8.60;98.00;;;;;;4976547;28;20463;-68
2022/11/24 04:21:27;;;;;;;3.00;1.20;;;8.60;98.00;;;;;;4976511;28;20815;-68
2022/11/24 04:23:55;;;;;;;1.10;1.03;;;8.70;98.00;;;;;;4976577;28;20511;-68
2022/11/24 04:26:23;;;;;;;2.67;1.30;;;8.70;98.00;;;;;;4976414;28;20473;-68
2022/11/24 04:28:50;;;;;;;1.37;1.27;;;8.70;98.00;;;;;;4976149;28;20492;-68
2022/11/24 04:31:17;;;;;;;1.50;1.07;;;8.70;98.00;;;;;;4976185;28;20464;-68
2022/11/24 04:33:47;;;;;;;1.50;1.40;;;8.80;98.00;;;;;;4976339;28;20492;-68
2022/11/24 04:36:14;;;;;;;1.40;1.10;;;8.80;98.00;;;;;;4975881;28;20544;-68
2022/11/24 04:38:41;;;;;;;2.60;1.47;;;8.80;98.00;;;;;;4975639;28;20462;-68
2022/11/24 04:41:09;;;;;;;1.30;1.20;;;8.80;98.00;;;;;;4975189;28;20872;-68
2022/11/24 04:43:39;;;;;;;3.23;1.43;;;8.80;98.00;;;;;;4974989;28;20921;-68
2022/11/24 04:46:09;;;;;;;1.30;1.10;;;8.90;98.00;;;;;;4975516;28;20885;-68
2022/11/24 04:48:36;;;;;;;1.47;1.10;;;8.90;98.00;;;;;;4975727;28;20515;-68
2022/11/24 04:51:05;;;;;;;1.20;1.10;;;8.90;98.00;;;;;;4975782;28;20456;-68
2022/11/24 04:53:32;;;;;;;1.20;1.00;;;8.90;98.00;;;;;;4975756;28;20943;-68
2022/11/24 04:56:03;;;;;;;1.20;1.00;;;8.90;98.00;;;;;;4975822;28;20474;-68
2022/11/24 04:58:30;;;;;;;1.10;1.00;;;8.90;98.00;;;;;;4975837;28;20462;-68
2022/11/24 05:01:06;;;;;;;1.40;1.10;;;8.90;98.00;;;;;;4975744;28;20464;-68
2022/11/24 05:03:33;;;;;;;1.37;1.30;;;8.80;98.00;;;;;;4975858;28;20459;-68
2022/11/24 05:06:00;;;;;;;1.93;1.10;;;8.90;98.00;;;;;;4975532;28;20457;-68
2022/11/24 05:08:27;;;;;;;4.67;1.30;;;8.80;98.00;;;;;;4975115;28;20958;-68
2022/11/24 05:10:54;;;;;;;5.23;1.90;;;8.90;98.00;;;;;;4974884;28;20456;-68
2022/11/24 05:13:21;;;;;;;1.50;1.27;;;8.80;98.00;;;;;;4975646;28;20483;-68
2022/11/24 05:15:48;;;;;;;1.20;1.10;;;8.90;98.00;;;;;;4975389;28;20512;-68
2022/11/24 05:18:17;;;;;;;1.30;1.10;;;8.90;98.00;;;;;;4975634;28;20523;-68
2022/11/24 05:20:44;;;;;;;1.70;1.37;;;8.90;98.00;;;;;;4975302;28;20462;-68
2022/11/24 05:23:11;;;;;;;1.20;1.20;;;8.90;98.00;;;;;;4975314;28;20559;-68
2022/11/24 05:25:38;;;;;;;1.70;1.20;;;8.90;98.00;;;;;;4974982;28;20462;-68
2022/11/24 05:28:08;;;;;;;1.50;1.10;;;8.90;98.00;;;;;;4975099;28;20464;-68
2022/11/24 05:30:38;;;;;;;1.20;1.10;;;8.90;98.00;;;;;;4975013;28;20571;-68
2022/11/24 05:33:06;;;;;;;1.40;1.30;;;8.90;98.00;;;;;;4975003;28;20530;-68
2022/11/24 05:35:38;;;;;;;1.20;1.10;;;8.90;98.00;;;;;;4974884;28;20463;-68
2022/11/24 05:38:05;;;;;;;1.10;0.97;;;8.90;98.00;;;;;;4974935;28;20928;-68
2022/11/24 05:40:32;;;;;;;1.50;1.10;;;8.90;98.00;;;;;;4974982;28;20807;-68
2022/11/24 05:42:59;;;;;;;1.50;1.00;;;8.90;98.00;;;;;;4974870;28;20505;-68
2022/11/24 05:45:26;;;;;;;5.47;1.37;;;8.90;98.00;;;;;;4974903;28;21011;-68
2022/11/24 05:48:01;;;;;;;1.20;1.10;;;8.90;98.00;;;;;;4974810;28;20469;-68
2022/11/24 05:50:28;;;;;;;1.10;1.00;;;8.90;98.00;;;;;;4974738;28;20801;-68
2022/11/24 05:53:01;;;;;;;1.40;1.10;;;8.90;98.00;;;;;;4974846;28;20459;-68
2022/11/24 05:55:28;;;;;;;1.20;1.00;;;8.90;98.00;;;;;;4974850;28;20511;-68
2022/11/24 05:58:02;;;;;;;1.87;1.20;;;8.90;98.00;;;;;;4974793;28;20959;-68
2022/11/24 06:00:31;;;;;;;1.30;1.03;;;8.90;98.00;;;;;;4974583;28;20453;-68
2022/11/24 06:02:58;;;;;;;1.63;1.30;;;8.80;98.00;;;;;;4974798;28;20456;-68
2022/11/24 06:05:25;;;;;;;1.57;1.10;;;8.80;98.00;;;;;;4974611;28;20525;-68
2022/11/24 06:07:53;;;;;;;1.20;1.00;;;8.90;98.00;;;;;;4974685;28;20472;-68
2022/11/24 06:10:23;;;;;;;1.60;1.27;;;8.90;98.00;;;;;;4974611;28;20996;-68
2022/11/24 06:12:50;;;;;;;2.37;1.23;;;8.90;98.00;;;;;;4974577;28;20548;-68
2022/11/24 06:15:18;;;;;;;1.10;1.00;;;8.90;98.00;;;;;;4974400;28;20515;-68
2022/11/24 06:17:52;;;;;;;2.23;1.10;;;8.80;98.00;;;;;;4974323;28;20463;-68
2022/11/24 06:20:19;;;;;;;2.43;1.37;;;8.70;98.00;;;;;;4974232;28;20462;-68
2022/11/24 06:22:47;;;;;;;5.43;1.17;;;8.70;98.00;;;;;;4973733;28;20458;-68
2022/11/24 06:25:14;;;;;;;1.70;1.37;;;8.70;98.00;;;;;;4973940;28;20509;-68
2022/11/24 06:27:43;;;;;;;1.53;1.10;;;8.70;98.00;;;;;;4973822;28;20567;-68
2022/11/24 06:30:11;;;;;;;1.30;1.10;;;8.80;98.00;;;;;;4973819;28;20489;-68
2022/11/24 06:32:43;;;;;;;1.60;1.50;;;8.80;98.00;;;;;;4973326;28;20543;-68
2022/11/24 06:35:11;;;;;;;1.30;1.00;;;8.80;98.00;;;;;;4973846;28;20497;-68
2022/11/24 06:37:41;;;;;;;1.93;1.17;;;8.80;98.00;;;;;;4973975;28;21110;-68
2022/11/24 06:40:09;;;;;;;2.33;1.90;;;8.80;98.00;;;;;;4973791;28;20813;-68
2022/11/24 06:42:37;;;;;;;1.70;1.30;;;8.80;98.00;;;;;;4973840;28;20469;-68
2022/11/24 06:45:06;;;;;;;1.20;1.00;;;8.80;98.00;;;;;;4973808;28;20464;-68
2022/11/24 06:47:34;;;;;;;1.50;1.23;;;8.90;98.00;;;;;;4973735;28;20468;-68
2022/11/24 06:50:03;;;;;;;1.20;1.00;;;8.90;98.00;;;;;;4973688;28;20480;-68
2022/11/24 06:52:30;;;;;;;2.40;1.40;;;8.90;98.00;;;;;;4973670;28;20460;-68
2022/11/24 06:54:57;;;;;;;1.33;1.13;;;8.90;98.00;;;;;;4973771;28;20860;-68
2022/11/24 06:57:25;;;;;;;1.10;1.00;;;9.00;98.00;;;;;;4973097;28;20461;-68
2022/11/24 06:59:52;;;;;;;1.73;1.20;;;9.00;98.00;;;;;;4973140;28;20947;-68
2022/11/24 07:02:20;;;;;;;1.80;1.30;;;9.00;98.00;;;;;;4973872;28;20818;-68
2022/11/24 07:04:47;;;;;;;1.60;1.20;;;9.00;98.00;;;;;;4973842;28;20519;-68
2022/11/24 07:07:14;;;;;;;1.60;1.20;;;9.10;98.00;;;;;;4973693;28;20804;-69
2022/11/24 07:09:41;;;;;;;1.67;1.20;;;9.10;98.00;;;;;;4973555;28;20850;-68
2022/11/24 07:12:08;;;;;;;1.33;1.00;;;9.10;98.00;;;;;;4973337;28;20461;-68
2022/11/24 07:14:35;;;;;;;9.90;1.70;;;9.10;98.00;;;;;;4973378;28;20609;-68
2022/11/24 07:17:03;;;;;;;1.57;1.20;;;9.10;98.00;;;;;;4973289;28;20936;-68
2022/11/24 07:19:32;;;;;;;3.30;1.53;;;9.10;98.00;;;;;;4973004;28;20469;-68
2022/11/24 07:21:59;;;;;;;3.10;1.47;;;9.20;98.00;;;;;;4973169;28;20472;-68
2022/11/24 07:24:26;;;;;;;1.20;1.00;;;9.20;98.00;;;;;;4973254;28;21023;-68
2022/11/24 07:26:53;;;;;;;1.30;1.10;;;9.20;98.00;;;;;;4973175;28;20471;-68
2022/11/24 07:29:20;;;;;;;1.63;1.20;;;9.20;98.00;;;;;;4973113;28;20453;-68
2022/11/24 07:31:47;;;;;;;2.33;1.40;;;9.20;98.00;;;;;;4973054;28;20882;-68
2022/11/24 07:34:14;;;;;;;1.20;1.10;;;9.20;98.00;;;;;;4972998;28;20461;-68
2022/11/24 07:36:43;;;;;;;1.10;0.97;;;9.20;98.00;;;;;;4972884;28;20493;-68
2022/11/24 07:39:11;;;;;;;2.17;1.70;;;9.10;98.00;;;;;;4973059;28;20457;-68
2022/11/24 07:41:38;;;;;;;1.30;1.10;;;9.10;98.00;;;;;;4973162;28;20511;-65
2022/11/24 07:44:05;;;;;;;3.73;1.27;;;9.00;98.00;;;;;;4974701;28;20461;-65
2022/11/24 07:46:32;;;;;;;3.20;1.43;;;9.00;98.00;;;;;;4976908;28;20449;-65
2022/11/24 07:48:59;;;;;;;2.17;1.40;;;8.90;98.00;;;;;;4976967;28;20464;-65
2022/11/24 07:51:26;;;;;;;1.20;1.10;;;8.90;98.00;;;;;;4977123;28;20877;-65
2022/11/24 07:53:55;;;;;;;4.70;1.23;;;8.90;98.00;;;;;;4976867;28;20535;-65
2022/11/24 07:56:22;;;;;;;13.20;1.30;;;8.80;98.00;;;;;;4976996;28;20493;-65
2022/11/24 07:58:49;;;;;;;2.80;1.13;;;8.80;98.00;;;;;;4977103;28;20483;-65
2022/11/24 08:01:17;;;;;;;1.30;1.20;;;8.70;98.00;;;;;;4977020;28;20468;-65
2022/11/24 08:03:46;;;;;;;1.10;1.00;;;8.70;98.00;;;;;;4977035;28;20461;-65
2022/11/24 08:06:13;;;;;;;1.20;1.10;;;8.60;98.00;;;;;;4976947;28;20529;-65
2022/11/24 08:08:41;;;;;;;1.20;1.10;;;8.50;98.00;;;;;;4976530;28;20468;-64
2022/11/24 08:11:12;;;;;;;2.20;1.17;;;8.50;98.00;;;;;;4979062;28;20495;-65
2022/11/24 08:13:40;;;;;;;1.53;1.20;;;8.40;98.00;;;;;;4976472;28;20456;-65
2022/11/24 08:16:08;;;;;;;1.33;1.00;;;8.40;98.00;;;;;;4976159;28;20466;-65
2022/11/24 08:18:36;;;;;;;21.63;2.00;;;8.30;98.00;;;;;;4976328;28;20464;-65
2022/11/24 08:21:03;;;;;;;1.30;1.00;;;8.20;98.00;;;;;;4976226;28;20467;-64
2022/11/24 08:23:30;;;;;;;1.10;1.00;;;8.20;98.00;;;;;;4976510;28;20480;-64
2022/11/24 08:26:03;;;;;;;1.27;1.20;;;8.20;98.00;;;;;;4976158;28;20872;-64
2022/11/24 08:28:32;;;;;;;1.10;0.90;;;8.20;98.00;;;;;;4976052;28;21022;-64
2022/11/24 08:31:04;;;;;;;1.60;1.27;;;8.20;98.00;;;;;;4975975;28;20515;-65
2022/11/24 08:33:32;;;;;;;1.70;1.20;;;8.10;98.00;;;;;;4976232;28;20490;-65
2022/11/24 08:36:03;;;;;;;4.10;1.50;;;8.20;98.00;;;;;;4976060;28;20468;-65
2022/11/24 08:38:30;;;;;;;1.37;1.00;;;8.30;98.00;;;;;;4976262;28;20456;-65
2022/11/24 08:41:02;;;;;;;2.17;1.10;;;8.30;98.00;;;;;;4976133;28;20464;-65
2022/11/24 08:43:29;;;;;;;1.30;1.17;;;8.30;98.00;;;;;;4978465;28;20459;-66
2022/11/24 08:45:59;;;;;;;3.83;1.23;;;8.30;98.00;;;;;;4977741;28;20507;-65
2022/11/24 08:48:26;;;;;;;2.80;1.50;;;8.40;98.00;;;;;;4971597;28;21010;-65
2022/11/24 08:50:55;;;;;;;1.57;1.10;;;8.40;98.00;;;;;;4968974;28;20576;-65
2022/11/24 08:53:22;;;;;;;1.90;1.20;;;8.50;98.00;;;;;;4971449;28;20468;-65
2022/11/24 08:55:49;;;;;;;1.73;1.50;;;8.40;98.00;;;;;;4972366;28;20475;-65
2022/11/24 08:58:16;;;;;;;1.10;1.00;;;8.50;98.00;;;;;;4973173;28;20454;-65
2022/11/24 09:00:43;;;;;;;1.63;1.00;;;8.50;98.00;;;;;;4972768;28;20460;-65
2022/11/24 09:03:15;;;;;;;1.73;1.10;;;8.70;98.00;;;;;;4972538;28;20468;-65
2022/11/24 09:05:42;;;;;;;2.17;1.40;;;8.60;98.00;;;;;;4972295;28;20875;-65
2022/11/24 09:08:09;;;;;;;3.00;1.40;;;8.50;98.00;;;;;;4972280;28;20460;-65
2022/11/24 09:10:36;;;;;;;1.70;0.90;;;8.50;98.00;;;;;;4974605;28;20920;-65
2022/11/24 09:13:04;;;;;;;1.27;1.20;;;8.40;98.00;;;;;;4971313;28;20517;-65
2022/11/24 09:15:31;;;;;;;5.43;1.20;;;8.50;98.00;;;;;;4971145;28;20480;-65
2022/11/24 09:17:58;;;;;;;1.50;1.23;;;8.50;98.00;;;;;;4971914;28;21033;-65
2022/11/24 09:20:27;;;;;;;1.40;1.20;;;8.50;98.00;;;;;;4972100;28;20472;-65
2022/11/24 09:22:54;;;;;;;1.53;1.30;;;8.50;98.00;;;;;;4971895;28;20494;-65
2022/11/24 09:25:22;;;;;;;1.67;1.03;;;8.70;98.00;;;;;;4972777;28;21077;-65
2022/11/24 09:27:49;;;;;;;1.10;1.00;;;8.70;98.00;;;;;;4971727;28;20840;-65
2022/11/24 09:30:17;;;;;;;2.03;1.40;;;8.80;98.00;;;;;;4971732;28;20586;-65
2022/11/24 09:32:44;;;;;;;1.67;1.27;;;8.70;98.00;;;;;;4971738;28;20516;-64
2022/11/24 09:35:11;;;;;;;1.73;1.37;;;8.80;98.00;;;;;;4971638;28;20461;-65
2022/11/24 09:37:40;;;;;;;5.20;1.43;;;9.00;98.00;;;;;;4971752;28;20457;-65
2022/11/24 09:40:10;;;;;;;1.53;1.47;;;9.10;98.00;;;;;;4971871;28;20468;-65
2022/11/24 09:42:44;;;;;;;3.53;1.70;;;9.10;98.00;;;;;;4972138;28;20491;-65
2022/11/24 09:45:19;;;;;;;2.60;1.30;;;9.20;98.00;;;;;;4972149;28;20511;-65
2022/11/24 09:48:01;;;;;;;1.20;1.10;;;9.30;98.00;;;;;;4972240;28;20494;-65
2022/11/24 09:50:32;;;;;;;1.93;1.50;;;9.20;98.00;;;;;;4970523;28;20499;-66
2022/11/24 09:53:05;;;;;;;1.60;1.33;;;9.20;98.00;;;;;;4972027;28;20468;-66
2022/11/24 09:55:39;;;;;;;1.10;0.90;;;9.20;98.00;;;;;;4972195;28;20471;-66
2022/11/24 09:58:31;;;;;;;1.30;1.17;;;8.90;98.00;;;;;;4971826;28;20983;-65
2022/11/24 10:00:58;;;;;;;1.40;1.33;;;8.90;98.00;;;;;;4971868;28;20551;-65
2022/11/24 10:03:31;;;;;;;1.33;1.30;;;9.00;98.00;;;;;;4971869;28;20460;-66
2022/11/24 10:06:01;;;;;;;1.47;1.20;;;10.00;98.00;;;;;;4970819;28;20467;-67
2022/11/24 10:08:50;;;;;;;3.07;1.40;;;10.90;98.00;;;;;;4971871;28;20864;-65
2022/11/24 10:11:29;;;;;;;1.40;1.20;;;11.30;98.00;;;;;;4971847;28;20497;-65
2022/11/24 10:14:17;;;;;;;1.20;1.10;;;11.30;98.00;;;;;;4962230;28;20492;-66
2022/11/24 10:16:52;;;;;;;1.40;1.00;;;10.90;98.00;;;;;;4971347;28;20880;-65
2022/11/24 10:19:35;;;;;;;2.80;1.33;;;10.50;98.00;;;;;;4971618;28;20960;-65
2022/11/24 10:22:16;;;;;;;4.40;1.27;;;10.40;98.00;;;;;;4971460;28;20470;-65
2022/11/24 10:25:05;;;;;;;1.47;1.10;;;10.20;98.00;;;;;;4971559;28;20497;-65
2022/11/24 10:27:37;;;;;;;1.77;1.10;;;10.20;98.00;;;;;;4971194;28;20520;-66
2022/11/24 10:30:14;;;;;;;6.70;1.30;;;10.00;98.00;;;;;;4971103;28;20466;-66
2022/11/24 10:32:46;;;;;;;1.20;1.03;;;9.80;98.00;;;;;;4970924;28;21106;-66
2022/11/24 10:35:19;;;;;;;1.53;1.30;;;9.90;98.00;;;;;;4970672;28;20475;-65
2022/11/24 10:37:59;;;;;;;2.13;1.00;;;9.90;98.00;;;;;;4970476;28;20480;-66
2022/11/24 10:40:37;;;;;;;1.60;1.17;;;9.90;98.00;;;;;;4970895;28;20457;-66
2022/11/24 10:43:09;;;;;;;1.70;1.10;;;10.00;98.00;;;;;;4970820;28;20844;-65
2022/11/24 10:45:38;;;;;;;1.93;1.20;;;10.10;98.00;;;;;;4970901;28;20464;-65
2022/11/24 10:48:20;;;;;;;1.40;1.20;;;10.10;98.00;;;;;;4970601;28;20469;-65
2022/11/24 10:50:47;;;;;;;1.80;1.30;;;10.10;98.00;;;;;;4968327;28;20481;-65
2022/11/24 10:53:18;;;;;;;2.03;1.30;;;10.00;98.00;;;;;;4970440;28;20493;-65
2022/11/24 10:56:01;;;;;;;1.87;1.20;;;10.00;98.00;;;;;;4970682;28;20467;-65
2022/11/24 10:58:30;;;;;;;2.03;1.30;;;9.90;98.00;;;;;;4970402;28;20467;-66
2022/11/24 11:00:59;;;;;;;2.60;1.20;;;9.90;98.00;;;;;;4970303;28;20471;-66
2022/11/24 11:03:27;;;;;;;1.20;0.90;;;9.90;98.00;;;;;;4970385;28;20466;-66
2022/11/24 11:05:56;;;;;;;1.10;1.00;;;10.20;98.00;;;;;;4970484;28;20457;-66
2022/11/24 11:08:26;;;;;;;1.30;1.00;;;10.30;98.00;;;;;;4970096;28;20454;-66
2022/11/24 11:13:54;;;;;;;1.10;1.00;;;10.50;98.00;;;;;;5146763;27;21093;-64
2022/11/24 11:16:35;;;;;;;1.20;1.13;;;10.60;98.00;;;;;;5126643;28;20451;-64
2022/11/24 11:19:05;;;;;;;1.27;1.10;;;10.90;98.00;;;;;;5127012;28;20870;-65
2022/11/24 11:21:34;;;;;;;1.20;0.90;;;11.10;98.00;;;;;;5126857;28;20845;-66
2022/11/24 11:24:04;;;;;;;1.20;1.00;;;11.20;98.00;;;;;;5127112;28;20446;-67
2022/11/24 11:26:36;;;;;;;1.23;1.03;;;11.40;98.00;;;;;;5127295;28;20536;-67
2022/11/24 11:29:15;;;;;;;1.60;1.17;;;11.40;98.00;;;;;;5127337;28;20514;-67
2022/11/24 11:31:55;;;;;;;1.30;1.10;;;11.40;98.00;;;;;;5127409;28;20490;-68
2022/11/24 11:34:23;;;;;;;1.63;1.10;;;11.10;98.00;;;;;;5125891;28;20450;-68
2022/11/24 11:36:52;;;;;;;1.20;0.90;;;11.00;98.00;;;;;;5127072;28;21008;-67
2022/11/24 11:39:26;;;;;;;1.17;0.90;;;10.90;98.00;;;;;;5126765;28;20457;-68
2022/11/24 11:42:03;;;;;;;1.20;1.03;;;10.70;98.00;;;;;;5127082;27;20489;-65
2022/11/24 11:44:37;;;;;;;1.80;1.10;;;10.40;98.00;;;;;;5126980;27;20515;-65
2022/11/24 11:47:17;;;;;;;1.20;1.00;;;10.50;98.00;;;;;;5126908;27;20449;-65
2022/11/24 11:49:45;;;;;;;1.27;1.00;;;10.70;98.00;;;;;;5124467;28;20465;-65
2022/11/24 11:52:33;;;;;;;1.20;1.00;;;10.80;98.00;;;;;;5126590;27;20979;-64
2022/11/24 11:55:22;;;;;;;1.20;1.10;;;11.10;98.00;;;;;;5126886;27;20479;-65
2022/11/24 11:58:01;;;;;;;1.20;1.00;;;11.20;98.00;;;;;;5117645;28;20462;-66
2022/11/24 12:00:32;;;;;;;1.20;1.00;;;11.20;98.00;;;;;;5126818;28;20534;-66
2022/11/24 12:03:37;;;;;;;1.20;1.00;;;11.10;98.00;;;;;;5126726;28;20450;-66
2022/11/24 12:06:19;;;;;;;1.27;1.07;;;11.20;98.00;;;;;;5126536;27;20466;-66
2022/11/24 12:08:53;;;;;;;1.20;0.90;;;11.30;98.00;;;;;;5126884;28;20461;-66
2022/11/24 12:11:28;;;;;;;1.20;1.00;;;11.30;98.00;;;;;;5118057;28;20550;-66
2022/11/24 12:14:14;;;;;;;1.40;1.10;;;11.40;98.00;;;;;;5124754;28;20498;-66
2022/11/24 12:16:53;;;;;;;2.17;1.10;;;11.50;98.00;;;;;;5126153;28;20966;-66
2022/11/24 12:19:38;;;;;;;1.20;1.00;;;11.50;98.00;;;;;;5125910;27;20939;-66
2022/11/24 12:22:13;;;;;;;2.30;1.10;;;11.90;98.00;;;;;;5125629;28;20949;-66
2022/11/24 12:24:49;;;;;;;1.20;1.00;;;12.50;98.00;;;;;;5114481;28;20466;-67
2022/11/24 12:27:27;;;;;;;1.23;1.00;;;12.90;98.00;;;;;;5111660;28;21061;-66
2022/11/24 12:30:10;;;;;;;2.33;1.07;;;13.50;98.00;;;;;;5111869;28;20481;-66
2022/11/24 12:33:04;;;;;;;1.60;1.10;;;13.90;98.00;;;;;;5111777;28;20589;-65
2022/11/24 12:35:37;;;;;;;1.20;1.10;;;14.20;98.00;;;;;;5111611;28;20894;-65
2022/11/24 12:38:30;;;;;;;1.40;1.27;;;13.90;98.00;;;;;;5112006;28;20457;-66
2022/11/24 12:41:14;;;;;;;1.20;1.10;;;13.30;98.00;;;;;;5112658;28;20462;-66
2022/11/24 12:43:50;;;;;;;2.80;1.17;;;12.90;98.00;;;;;;5106185;28;20471;-66
2022/11/24 12:46:23;;;;;;;2.03;1.10;;;12.90;98.00;;;;;;5111872;28;20460;-68
2022/11/24 12:49:03;;;;;;;2.33;1.10;;;12.90;98.00;;;;;;5111627;28;20553;-64
2022/11/24 12:51:35;;;;;;;1.20;1.00;;;12.70;98.00;;;;;;5109715;28;20799;-66
2022/11/24 12:54:05;;;;;;;1.50;1.20;;;12.30;98.00;;;;;;5111861;28;20680;-67
2022/11/24 12:56:38;;;;;;;1.30;1.10;;;12.10;98.00;;;;;;5111402;28;20455;-66
2022/11/24 12:59:17;;;;;;;1.20;1.00;;;11.80;98.00;;;;;;5111300;28;20453;-66
2022/11/24 13:01:50;;;;;;;1.30;1.00;;;11.80;98.00;;;;;;5111227;28;20456;-66
2022/11/24 13:04:30;;;;;;;1.40;1.20;;;11.60;98.00;;;;;;5112469;28;20521;-67
2022/11/24 13:07:03;;;;;;;1.30;1.10;;;11.50;98.00;;;;;;5113602;28;20454;-65
2022/11/24 13:09:30;;;;;;;1.87;1.20;;;11.30;98.00;;;;;;5112462;28;20458;-67
2022/11/24 13:12:08;;;;;;;1.83;1.20;;;11.30;98.00;;;;;;5113306;28;20455;-66
2022/11/24 13:14:38;;;;;;;1.20;1.17;;;11.20;98.00;;;;;;5113753;28;20453;-66
2022/11/24 13:17:24;;;;;;;1.80;1.30;;;11.10;98.00;;;;;;5113733;28;20464;-67